Maersk Weymouth — VRFS9 — position and weather

sailwx.info

Track history (hours):
 
Tides and Currents Weather Stations Pressure Air Temp Water Temp Dewpoint Dewpoint Depression Visibility Wind Speed Wind Dir Waves Ship Positions

Maersk Weymouth

Last reported at 2014-Nov-25 16:33 UTC. Time now 2014-Nov-27 09:29 UTC.
Position N 35°58' W 005°33'.

Length 172 m; draft 8.8 m.

Type: Cargo ship. MMSI: 477622100.

Date/timePositionNaut miles runAvg speedWind from/ knotsBaromVisibWave heightAir tempDewpointWater temp
2014-Nov-25 16:33N 35°58' W 005°33'1210.9
2014-Nov-25 15:24N 36°09' W 005°25'1 0.3
2014-Nov-25 11:15N 36°09' W 005°26'0 0.0
2014-Nov-25 10:33N 36°09' W 005°26'0 0.0
2014-Nov-25 09:27N 36°09' W 005°26'0 0.0
2014-Nov-25 08:27N 36°09' W 005°26'0 0.0
2014-Nov-25 06:33N 36°09' W 005°26'0 0.0
2014-Nov-25 05:33N 36°09' W 005°26'0 0.0
2014-Nov-25 04:33N 36°09' W 005°26'0 0.0
2014-Nov-25 03:33N 36°09' W 005°26'0 0.0
2014-Nov-25 02:33N 36°09' W 005°26'0 0.0
2014-Nov-25 01:33N 36°09' W 005°26'0 0.0
2014-Nov-25 00:33N 36°09' W 005°26'0 0.0
2014-Nov-24 23:33N 36°09' W 005°26'0 0.0
2014-Nov-24 22:33N 36°09' W 005°26'1 1.4
2014-Nov-24 21:33N 36°09' W 005°24'8 7.8
2014-Nov-24 20:33N 36°03' W 005°18'9 1.3
2014-Nov-24 13:26N 36°08' W 005°09'2 1.2
2014-Nov-24 12:05N 36°07' W 005°09'3 0.8
2014-Nov-24 08:29N 36°04' W 005°10'1010.7
2014-Nov-24 07:33N 35°58' W 005°21'  
2014-Nov-21 23:19N 35°53' W 005°34'  
Track history (hours):
 
Tides and Currents Weather Stations Pressure Air Temp Water Temp Dewpoint Dewpoint Depression Visibility Wind Speed Wind Dir Waves Ship Positions

Maersk Weymouth

Last reported at 2014-Nov-25 16:33 UTC. Time now 2014-Nov-27 09:29 UTC.
Position N 35°58' W 005°33'.

Length 172 m; draft 8.8 m.

Type: Cargo ship. MMSI: 477622100.

Date/timePositionNaut miles runAvg speedWind from/ knotsBaromVisibWave heightAir tempDewpointWater temp
2014-Nov-25 16:33N 35°58' W 005°33'1210.9
2014-Nov-25 15:24N 36°09' W 005°25'1 0.3
2014-Nov-25 11:15N 36°09' W 005°26'0 0.0
2014-Nov-25 10:33N 36°09' W 005°26'0 0.0
2014-Nov-25 09:27N 36°09' W 005°26'0 0.0
2014-Nov-25 08:27N 36°09' W 005°26'0 0.0
2014-Nov-25 06:33N 36°09' W 005°26'0 0.0
2014-Nov-25 05:33N 36°09' W 005°26'0 0.0
2014-Nov-25 04:33N 36°09' W 005°26'0 0.0
2014-Nov-25 03:33N 36°09' W 005°26'0 0.0
2014-Nov-25 02:33N 36°09' W 005°26'0 0.0
2014-Nov-25 01:33N 36°09' W 005°26'0 0.0
2014-Nov-25 00:33N 36°09' W 005°26'0 0.0
2014-Nov-24 23:33N 36°09' W 005°26'0 0.0
2014-Nov-24 22:33N 36°09' W 005°26'1 1.4
2014-Nov-24 21:33N 36°09' W 005°24'8 7.8
2014-Nov-24 20:33N 36°03' W 005°18'9 1.3
2014-Nov-24 13:26N 36°08' W 005°09'2 1.2
2014-Nov-24 12:05N 36°07' W 005°09'3 0.8
2014-Nov-24 08:29N 36°04' W 005°10'1010.7
2014-Nov-24 07:33N 35°58' W 005°21'  
2014-Nov-21 23:19N 35°53' W 005°34'  

Dump ship's entire track history